Keyapaha, South Dakota
Current Conditions -  °F | °C
As of 8:53 PM on Saturday 25 Oct 2014 (Local Time) from KICR Reporting Station
Clear Clear  
Wind Chill: 51°   Ceiling: Unl
Heat Index: 51°   Visibility: 10mi
Dew Point: 33°   Wind: 12mph
Humidity: 50%   Direction: 140°SE
Pressure: 30.01"   Gusts: NA
Location:  43.2923°N, 99.8934°W
Report Text: KICR 260153Z AUTO 14010KT 10SM CLR 11/01 A3001 RMK AO2 SLP170 T01060006 $
Loading
Personal Weather Stations






























Interactive Weather Map
Tropical Storm Tracking
New forecast layout! Learn more

10-Day Weather Forecast

Advertisements
Track Severe Weather on mobile